Lorraine, NY (13659)

12:49 PM EST on December 03, 2016 (GMT -0500)
Fuller Road | | Change Station

Elev 702 ft 43.86 °N, 75.98 °W | Updated 7 minutes ago

Overcast
Overcast
37.6 °F
Feels Like 35 °F
N
3.7
Wind Variable Wind from WSW
Gusts 9.9 mph

Today
High -- | Low -- °F
--% Chance of Precip.
Yesterday
High -- | Low -- °F
Precip. -- in
Pressure 30.10 in
Visibility 10.0 miles
Clouds Overcast 3300 ft
Windchill 35 °F
Dew Point 28 °F
Humidity 68%
Rainfall 0.00 in
Snow Depth Not available.
7:20 AM 4:27 PM
Waxing Crescent, 16% visible
METAR KART 031656Z AUTO 29013KT 10SM OVC033 03/M03 A3008 RMK AO2 SLP191 T00281033
Pressure 30.10 in
Visibility 10.0 miles
Clouds Overcast 3300 ft
Windchill 35 °F
Dew Point 28 °F
Humidity 68%
Rainfall 0.00 in
Snow Depth Not available.
7:20 AM 4:27 PM
Waxing Crescent, 16% visible
METAR KART 031656Z AUTO 29013KT 10SM OVC033 03/M03 A3008 RMK AO2 SLP191 T00281033

10-Day Weather Forecast

Almanac

Astronomy

Dec. 03, 2016 Rise Set
Actual Time
Civil Twilight
Nautical Twilight
Astronomical Twilight
Moon
Length of Visible Light
Length of Day
Tomorrow will be .
, % of the Moon is Illuminated

Today's Extremes

State Highs State Lows

Community

WunderPhotos

Upload Photos

1,955,455 photos uploaded!

WunderBlog® & News

Nearby

Air Quality

  Air Quality AQ Index Pollutant
Not available.

Snow Depth

Station Depth Elevation

Earthquake Activity

City Distance Mag. Time & Date
Minimum magnitude displayed is 2.5.

Coastal Water Temperatures

Place Temperature

Stations

Nearby Weather Stations

Station Location Temp. Windchill Dew Point Humidity Wind Precip. Elev Updated Type
                   

Watches & Warnings

There are currently no watches in effect.